Rechercher aéroport 
image banner adimage banner adimage banner ad
image banner ad

O46 - Weed

Situé à Weed, United States

ICAO - O46, IATA -

Données fournies par Airmate  

Information générale

Coordonnées: N41°28'51" W122°27'16"
Élévation : 2943 feet MSL.
Variation magnétique : 14° East
Voir autres Aéroports à California

Données opérationnelles

Special qualification required
Heure actuelle UTC:
Heure actuelle locale:
Météo à : KSIY - Siskiyou County ( 33 km )
METAR: KSIY 251053Z AUTO 07005KT 10SM CLR 21/06 A3004 RMK AO2 SLP151 T02110056
Voir NOTAMs / SUP AIP / TFR affectant cet aéroport [VIEW]
Fréquences de communication: [VIEW]

Pistes:

Identifiant RWYQFULongueur (ft)Largeur (ft)SurfaceLDA (ft)
14500060ASPH
32500060ASPH

Coordonnées de l'aéroport

Adresse: Weed United States

Vue satellite de O46